Česky Dansk Deutsch English Español Suomi Français Magyar Italiano Nederlands norsk Polski Português svenska Türkçe

 

Het Weer

Nizhnevartovsk (Rusland)

12:00, 5 augustus 2016 (GMT)

NWNNE
WE
SWSSE
Home            
Nizhnevartovsk Surgut Hanty-Mansijsk Omsk Novosibirsk Kemerovo Enisejsk Barnaul Ekaterinburg Novokuznetsk Chelyabinsk-Balandino Astana Kostanay Perm'/Bolshoe Savino Abakan Ust'- Kulom Karaganda Syktyvkar Ufa Nizhneudinsk Bratsk / Irkutsk Kotlas Orenburg / Tsentralny

Om een weerknop op uw website of weblog te plaatsen, copieer onderstaande code en plak die in uw pagina. In het eerste vakje staat HTML-code, in het tweede vakje UBB-code.


Add to Google

Details

Wind speed:3 bf, 7.8 kn, 4 m/s, 8.9 miles/h, 14.4 km/h
Wind direction:SW, 220°
Visibilidade global:Maior de 10000 m, 10 km, 32800 ft, 6.2 miles
Clouds:CAVOC
Temperatura:29°C, 84°F
Sensaço térmica:30°C, 86°F
Ponto de orvalho:19°C, 66°F
Pressão atmosférica:1014 hPa, 760.6 mmHg, 29.94 inHg, 1.001 atm
Humidade relativa:54.9 %
METAR:USNN 051200Z 22004MPS CAVOK 29/19 Q1014 R21/065 NOSIG RMK QFE756

Snelkoppelingen

Actuele weersinformatie van de hele wereld. Voeg locaties toe met het plus (+) symbool. Deze snelkoppelingen kunnen worden toegevoegd aan Google.

Lid van de Technetium groep

website free tracking
StatCounter NetStat W3C Validator

13-11-2019 06:35:31
astro.technetium.be money.technetium.be phote.technetium.be tafeltennistafel.technetium.be www.ligfiets.net